Data for 06/08/2007

Time Sea-Level Adjusted Pressure Absolute Pressure Temperature Relative Humidity Dew Point   
(mb) (inHg) (mb) (inHg) (C) (F) (%) (C) (F)
00:05 1019 30.09 848 25.04 7.5 45.5 78 3.9 39
00:10 1019 30.09 848 25.04 7.5 45.4 78 3.8 38.9
00:15 1019 30.09 848 25.04 7.4 45.4 77 3.8 38.8
00:20 1019 30.09 848 25.04 7.4 45.4 77 3.7 38.7
00:25 1018 30.06 848 25.04 7.4 45.4 76 3.5 38.3
00:30 1018 30.06 848 25.04 7.6 45.7 72 3 37.3
00:35 1018 30.06 848 25.04 7.8 46 73 3.2 37.7
00:40 1018 30.06 848 25.04 7.7 45.8 75 3.6 38.5
00:45 1018 30.06 848 25.04 7.3 45.2 78 3.7 38.6
00:50 1018 30.06 847 25.01 7.1 44.7 77 3.3 38
00:55 1018 30.06 847 25.01 7.1 44.8 77 3.4 38.1
01:00 1018 30.06 847 25.01 7 44.7 78 3.5 38.2
01:05 1018 30.06 847 25.01 6.7 44.1 80 3.5 38.2
01:10 1018 30.06 847 25.01 6.5 43.7 81 3.5 38.3
01:15 1018 30.06 847 25.01 6.3 43.4 80 3.1 37.6
01:20 1018 30.06 847 25.01 6.4 43.5 79 2.9 37.3
01:25 1018 30.06 847 25.01 6.6 44 77 2.8 37.1
01:30 1018 30.06 847 25.01 6.6 43.8 77 2.9 37.2
01:35 1018 30.06 847 25.01 6.6 43.9 77 2.8 37
01:40 1018 30.06 847 25.01 6.6 43.9 76 2.8 37
01:45 1018 30.06 847 25.01 6.5 43.7 78 2.9 37.2
01:50 1018 30.06 847 25.01 6.3 43.4 79 2.9 37.2
01:55 1018 30.06 847 25.01 6.1 42.9 79 2.8 37
02:00 1018 30.06 847 25.01 5.9 42.6 80 2.8 37
02:05 1018 30.06 847 25.01 5.8 42.5 80 2.6 36.8
02:10 1018 30.06 847 25.01 5.7 42.3 81 2.7 36.8
02:15 1018 30.06 847 25.01 5.6 42 82 2.7 36.8
02:20 1018 30.06 847 25.01 5.8 42.4 80 2.6 36.6
02:25 1018 30.06 847 25.01 5.7 42.3 81 2.7 36.9
02:30 1018 30.06 847 25.01 5.5 41.8 82 2.7 36.8
02:35 1018 30.06 847 25.01 5.1 41.2 84 2.6 36.7
02:40 1018 30.06 847 25.01 4.9 40.8 83 2.2 36
02:45 1018 30.06 847 25.01 5.1 41.1 82 2.2 35.9
02:50 1018 30.06 847 25.01 5.2 41.4 80 2.1 35.8
02:55 1018 30.06 847 25.01 5.3 41.6 80 2.2 35.9
03:00 1018 30.06 847 25.01 5.3 41.5 81 2.2 36
03:05 1018 30.06 847 25.01 5 41.1 82 2.2 35.9
03:10 1018 30.06 847 25.01 4.6 40.3 84 2.1 35.8
03:15 1018 30.06 847 25.01 4.1 39.4 86 2 35.5
03:20 1018 30.06 847 25.01 4.1 39.3 85 1.8 35.2
03:25 1018 30.06 847 25.01 4.1 39.5 84 1.7 35
03:30 1018 30.06 847 25.01 4.2 39.5 84 1.7 35
03:35 1018 30.06 847 25.01 4.2 39.6 83 1.7 35
03:40 1018 30.06 847 25.01 4.2 39.6 84 1.7 35
03:45 1018 30.06 847 25.01 4.1 39.4 83 1.6 34.8
03:50 1018 30.06 847 25.01 4.2 39.6 83 1.6 34.8
03:55 1018 30.06 847 25.01 4.3 39.8 82 1.5 34.8
04:00 1018 30.06 847 25.01 4.6 40.3 80 1.5 34.7
04:05 1018 30.06 847 25.01 4.8 40.7 80 1.6 35
04:10 1018 30.06 847 25.01 5 40.9 78 1.5 34.7
04:15 1018 30.06 847 25.01 5.1 41.3 78 1.6 34.9
04:20 1018 30.06 847 25.01 5.1 41.2 78 1.7 35
04:25 1018 30.06 847 25.01 5 41.1 79 1.6 34.9
04:30 1018 30.06 847 25.01 4.9 40.9 80 1.7 35.1
04:35 1018 30.06 847 25.01 4.4 39.9 82 1.6 34.8
04:40 1018 30.06 847 25.01 4.5 40 81 1.4 34.6
04:45 1018 30.06 847 25.01 4.7 40.5 79 1.5 34.6
04:50 1018 30.06 847 25.01 5.1 41.2 78 1.5 34.7
04:55 1018 30.06 847 25.01 5.2 41.4 77 1.6 34.9
05:00 1018 30.06 847 25.01 5.2 41.3 77 1.5 34.8
05:05 1018 30.06 847 25.01 5.2 41.3 77 1.5 34.7
05:10 1018 30.06 847 25.01 5.1 41.2 78 1.5 34.7
05:15 1018 30.06 847 25.01 4.9 40.9 79 1.6 34.9
05:20 1018 30.06 847 25.01 4.8 40.6 80 1.7 35
05:25 1018 30.06 847 25.01 4.5 40 82 1.7 35
05:30 1018 30.06 847 25.01 4.1 39.5 83 1.6 34.8
05:35 1018 30.06 847 25.01 3.9 39 84 1.4 34.6
05:40 1018 30.06 847 25.01 4 39.1 83 1.3 34.4
05:45 1018 30.06 847 25.01 3.9 39.1 83 1.4 34.5
05:50 1018 30.06 847 25.01 3.8 38.8 84 1.4 34.5
05:55 1018 30.06 847 25.01 3.6 38.5 85 1.3 34.4
06:00 1018 30.06 847 25.01 3.4 38.2 85 1.1 34
06:05 1018 30.06 847 25.01 3.3 38 85 1.1 34
06:10 1018 30.06 847 25.01 3.4 38.1 85 1.1 34
06:15 1018 30.06 847 25.01 3.6 38.4 85 1.2 34.2
06:20 1018 30.06 847 25.01 3.8 38.8 83 1.1 34
06:25 1018 30.06 847 25.01 4 39.2 82 1.2 34.2
06:30 1018 30.06 847 25.01 4.1 39.4 82 1.4 34.4
06:35 1018 30.06 848 25.04 4.3 39.7 82 1.4 34.5
06:40 1018 30.06 847 25.01 4.5 40.1 80 1.4 34.5
06:45 1018 30.06 848 25.04 4.8 40.6 79 1.5 34.7
06:50 1018 30.06 847 25.01 5 40.9 79 1.5 34.8
06:55 1018 30.06 848 25.04 5.3 41.5 78 1.7 35.1
07:00 1018 30.06 847 25.01 5.8 42.4 76 2 35.5
07:05 1018 30.06 848 25.04 6.1 43 76 2.2 35.9
07:10 1018 30.06 848 25.04 6.4 43.5 75 2.3 36.2
07:15 1018 30.06 848 25.04 6.8 44.2 75 2.6 36.7
07:20 1018 30.06 848 25.04 7.2 45 73 2.7 36.9
07:25 1018 30.06 848 25.04 7.5 45.5 73 3 37.4
07:30 1018 30.06 848 25.04 7.5 45.5 72 2.8 37
07:35 1018 30.06 848 25.04 7.6 45.7 72 3 37.3
07:40 1018 30.06 848 25.04 8 46.4 73 3.4 38.1
07:45 1018 30.06 848 25.04 8.2 46.8 72 3.5 38.3
07:50 1018 30.06 848 25.04 8.4 47.1 71 3.5 38.3
07:55 1018 30.06 848 25.04 9.1 48.4 68 3.5 38.3
08:00 1018 30.06 848 25.04 9.4 48.9 68 3.7 38.7
08:05 1018 30.06 848 25.04 9.9 49.7 66 3.8 38.8
08:10 1018 30.06 848 25.04 10.5 50.9 64 4.1 39.3
08:15 1018 30.06 848 25.04 11 51.7 61 3.9 39
08:20 1018 30.06 848 25.04 11.3 52.3 60 3.9 39
08:25 1018 30.06 848 25.04 11.5 52.7 60 4 39.3
08:30 1018 30.06 848 25.04 11.7 53 60 4.3 39.7
08:35 1018 30.06 848 25.04 11.9 53.4 57 3.8 38.9
08:40 1018 30.06 848 25.04 12.5 54.6 55 3.7 38.7
08:45 1018 30.06 848 25.04 12.7 54.9 53 3.6 38.4
08:50 1018 30.06 848 25.04 13.2 55.7 51 3.3 37.9
08:55 1018 30.06 848 25.04 12.9 55.2 52 3.4 38.2
09:00 1018 30.06 848 25.04 13.3 55.9 50 3.1 37.7
09:05 1019 30.09 848 25.04 13.3 55.9 51 3.4 38.1
09:10 1018 30.06 848 25.04 12.6 54.7 51 2.9 37.2
09:15 1018 30.06 848 25.04 13.1 55.6 52 3.5 38.3
09:20 1018 30.06 848 25.04 13.6 56.4 51 3.6 38.6
09:25 1019 30.09 848 25.04 13.9 57 50 3.6 38.5
09:30 1018 30.06 848 25.04 13.7 56.7 51 3.7 38.7
09:35 1018 30.06 848 25.04 13.6 56.5 51 3.7 38.6
09:40 1018 30.06 848 25.04 14.1 57.4 49 3.5 38.4
09:45 1018 30.06 848 25.04 14.3 57.8 47 3.3 37.9
09:50 1018 30.06 848 25.04 14.1 57.3 48 3.3 38
09:55 1018 30.06 847 25.01 14.4 57.8 45 2.8 37.1
10:00 1018 30.06 847 25.01 14.2 57.5 49 3.6 38.6
10:05 1018 30.06 847 25.01 14.6 58.2 48 3.6 38.5
10:10 1018 30.06 847 25.01 14.8 58.6 48 3.9 39
10:15 1018 30.06 847 25.01 14.8 58.6 47 3.6 38.4
10:20 1018 30.06 847 25.01 14.7 58.4 47 3.4 38.2
10:25 1018 30.06 847 25.01 14.1 57.3 48 3.3 37.9
10:30 1018 30.06 847 25.01 15 59.1 47 4 39.3
10:35 1018 30.06 847 25.01 13.9 57 53 4.5 40.1
10:40 1018 30.06 847 25.01 14.8 58.6 46 3.4 38
10:45 1018 30.06 847 25.01 15.6 60.1 45 4 39.2
10:50 1018 30.06 847 25.01 14.9 58.8 47 3.8 38.9
10:55 1018 30.06 847 25.01 15.6 60 43 3.2 37.8
11:00 1018 30.06 847 25.01 16 60.8 44 3.8 38.8
11:05 1018 30.06 847 25.01 15.4 59.8 47 4.4 39.9
11:10 1018 30.06 847 25.01 15.5 59.9 47 4.3 39.7
11:15 1018 30.06 847 25.01 15.3 59.5 45 3.5 38.3
11:20 1018 30.06 847 25.01 15.7 60.2 47 4.5 40.2
11:25 1018 30.06 847 25.01 16 60.7 47 4.7 40.4
11:30 1018 30.06 847 25.01 15.8 60.4 45 3.9 39
11:35 1018 30.06 847 25.01 15.7 60.3 48 4.9 40.8
11:40 1018 30.06 847 25.01 16.2 61.1 43 3.8 38.8
11:45 1018 30.06 847 25.01 16.5 61.7 44 4.3 39.8
11:50 1018 30.06 847 25.01 16.2 61.2 44 4 39.2
11:55 1018 30.06 847 25.01 17.4 63.2 41 4.1 39.4
12:00 1018 30.06 847 25.01 17.2 63 45 5.2 41.4
12:05 1018 30.06 847 25.01 16.6 61.8 44 4.5 40.1
12:10 1018 30.06 847 25.01 17.3 63.1 42 4.4 39.9
12:15 1018 30.06 847 25.01 17.3 63.1 43 4.7 40.5
12:20 1018 30.06 847 25.01 17.9 64.2 40 4.1 39.3
12:25 1017 30.03 847 25.01 17.9 64.3 40 4.4 40
12:30 1017 30.03 847 25.01 18.4 65.1 40 4.7 40.5
12:35 1017 30.03 847 25.01 17.4 63.3 43 5 40.9
12:40 1017 30.03 847 25.01 18.2 64.8 39 4.1 39.4
12:45 1017 30.03 847 25.01 18.1 64.6 40 4.3 39.7
12:50 1017 30.03 847 25.01 17.9 64.3 40 4.3 39.8
12:55 1017 30.03 847 25.01 17.7 63.8 40 3.9 39.1
13:00 1017 30.03 846 24.98 17.6 63.7 40 3.9 39
13:05 1017 30.03 846 24.98 18.3 65 36 3 37.5
13:10 1017 30.03 846 24.98 18.6 65.6 39 4.4 39.9
13:15 1017 30.03 846 24.98 18.9 66.1 37 4.2 39.6
13:20 1017 30.03 846 24.98 19.3 66.8 35 3.7 38.7
13:25 1017 30.03 846 24.98 18.8 65.8 37 4 39.2
13:30 1017 30.03 846 24.98 17.4 63.4 39 3.6 38.5
13:35 1017 30.03 846 24.98 17.3 63.2 39 3.2 37.8
13:40 1017 30.03 846 24.98 17.2 62.9 38 2.9 37.2
13:45 1017 30.03 846 24.98 18.2 64.7 38 3.8 38.8
13:50 1017 30.03 846 24.98 18.9 65.9 35 3.2 37.8
13:55 1017 30.03 846 24.98 18.7 65.7 35 3.1 37.6
14:00 1017 30.03 846 24.98 18.5 65.3 34 2.4 36.4
14:05 1017 30.03 846 24.98 18.9 66.1 34 2.9 37.2
14:10 1017 30.03 846 24.98 18.4 65.1 38 3.9 39.1
14:15 1017 30.03 846 24.98 18.7 65.6 38 4.2 39.6
14:20 1017 30.03 846 24.98 18.9 65.9 37 3.9 39
14:25 1017 30.03 846 24.98 18.9 65.9 37 3.8 38.9
14:30 1017 30.03 846 24.98 19.3 66.8 35 3.5 38.3
14:35 1017 30.03 846 24.98 19.4 67 38 4.8 40.6
14:40 1017 30.03 846 24.98 19.7 67.5 34 3.6 38.5
14:45 1017 30.03 846 24.98 20.4 68.6 32 3.5 38.3
14:50 1017 30.03 846 24.98 20.8 69.4 33 4.2 39.5
14:55 1017 30.03 846 24.98 20.7 69.2 33 4 39.2
15:00 1017 30.03 846 24.98 19.9 67.9 35 4.1 39.3
15:05 1017 30.03 846 24.98 19.5 67.1 36 4.1 39.5
15:10 1017 30.03 846 24.98 19.5 67.2 35 3.8 38.8
15:15 1017 30.03 846 24.98 19.7 67.4 37 4.8 40.7
15:20 1017 30.03 846 24.98 19.1 66.4 38 4.4 40
15:25 1017 30.03 846 24.98 19.2 66.6 36 3.9 39
15:30 1017 30.03 846 24.98 18.6 65.4 38 4.1 39.3
15:35 1017 30.03 846 24.98 19.4 66.9 37 4.6 40.3
15:40 1017 30.03 846 24.98 20 68 35 4.2 39.6
15:45 1017 30.03 846 24.98 20.5 68.9 33 4 39.2
15:50 1017 30.03 846 24.98 20.4 68.7 33 3.9 39.1
15:55 1017 30.03 846 24.98 21 69.8 32 3.9 39
16:00 1017 30.03 846 24.98 21.3 70.4 34 5 41
16:05 1017 30.03 846 24.98 19.8 67.7 35 4.2 39.6
16:10 1017 30.03 846 24.98 19.6 67.2 35 3.9 39.1
16:15 1016 30 846 24.98 19.8 67.6 34 3.8 38.9
16:20 1016 30 846 24.98 20.8 69.4 33 4.1 39.3
16:25 1016 30 846 24.98 20.7 69.3 34 4.5 40.1
16:30 1016 30 846 24.98 19.6 67.3 38 5.1 41.1
16:35 1016 30 846 24.98 19.1 66.4 38 4.7 40.5
16:40 1016 30 845 24.95 19.1 66.4 37 4.2 39.5
16:45 1016 30 845 24.95 18.9 65.9 40 4.9 40.9
16:50 1016 30 845 24.95 18.6 65.5 38 4.2 39.5
16:55 1016 30 845 24.95 19 66.2 40 5.1 41.2
17:00 1016 30 845 24.95 19.5 67.2 37 4.6 40.3
17:05 1016 30 846 24.98 19.8 67.7 37 4.9 40.9
17:10 1016 30 846 24.98 19.1 66.4 41 5.9 42.5
17:15 1016 30 846 24.98 18.5 65.2 40 4.7 40.5
17:20 1017 30.03 846 24.98 16.9 62.4 55 8 46.4
17:25 1017 30.03 846 24.98 14.3 57.8 60 6.7 44.1
17:30 1017 30.03 846 24.98 13.8 56.9 59 6.1 43
17:35 1017 30.03 846 24.98 13.2 55.8 60 5.8 42.4
17:40 1017 30.03 846 24.98 12.5 54.5 75 8.3 46.9
17:45 1017 30.03 846 24.98 11.8 53.2 76 7.7 45.9
17:50 1017 30.03 846 24.98 11.5 52.7 73 6.9 44.3
17:55 1017 30.03 846 24.98 11.8 53.2 71 6.7 44.1
18:00 1017 30.03 846 24.98 11.8 53.2 77 7.9 46.1
18:05 1017 30.03 846 24.98 11.2 52.1 76 7.1 44.8
18:10 1017 30.03 846 24.98 11.6 52.9 73 7 44.6
18:15 1017 30.03 846 24.98 12 53.7 74 7.6 45.7
18:20 1017 30.03 846 24.98 12.3 54.2 70 7.1 44.8
18:25 1017 30.03 846 24.98 12.7 54.8 71 7.5 45.5
18:30 1017 30.03 846 24.98 12.8 55 71 7.6 45.6
18:35 1017 30.03 846 24.98 12.8 55 69 7.3 45.1
18:40 1017 30.03 846 24.98 12.6 54.7 71 7.6 45.6
18:45 1017 30.03 846 24.98 12.5 54.5 72 7.6 45.7
18:50 1017 30.03 846 24.98 12.5 54.5 71 7.5 45.5
18:55 1017 30.03 846 24.98 12.5 54.4 71 7.4 45.3
19:00 1017 30.03 846 24.98 12.5 54.4 74 8 46.5
19:05 1017 30.03 846 24.98 12.8 55.1 74 8.3 46.9
19:10 1017 30.03 846 24.98 12.9 55.2 73 8.3 46.9
19:15 1017 30.03 846 24.98 12.9 55.1 71 7.7 45.9
19:20 1017 30.03 846 24.98 12.9 55.1 68 7.2 44.9
19:25 1017 30.03 846 24.98 12.9 55.2 71 7.8 46
19:30 1017 30.03 846 24.98 12.9 55.3 70 7.6 45.6
19:35 1017 30.03 846 24.98 13 55.3 67 7 44.7
19:40 1017 30.03 846 24.98 13 55.3 68 7.3 45.2
19:45 1017 30.03 846 24.98 12.9 55.2 70 7.6 45.7
19:50 1017 30.03 846 24.98 12.9 55.2 70 7.7 45.8
19:55 1017 30.03 846 24.98 12.8 55.1 72 7.9 46.2
20:00 1017 30.03 846 24.98 12.8 55.1 72 7.9 46.1
20:05 1017 30.03 846 24.98 12.7 54.9 70 7.4 45.2
20:10 1017 30.03 846 24.98 12.6 54.7 71 7.6 45.7
20:15 1017 30.03 846 24.98 12.5 54.5 73 7.9 46.2
20:20 1017 30.03 846 24.98 12.5 54.4 74 7.9 46.3
20:25 1017 30.03 846 24.98 12.5 54.4 75 8.2 46.7
20:30 1017 30.03 846 24.98 12.5 54.4 75 8.1 46.7
20:35 1017 30.03 846 24.98 12.4 54.4 74 7.9 46.3
20:40 1017 30.03 846 24.98 12.5 54.5 75 8.3 46.9
20:45 1017 30.03 846 24.98 12.5 54.6 74 8.1 46.6
20:50 1017 30.03 846 24.98 12.6 54.6 74 8.2 46.7
20:55 1017 30.03 846 24.98 12.5 54.5 73 7.8 46.1
21:00 1017 30.03 846 24.98 12.5 54.5 73 7.9 46.2
21:05 1017 30.03 846 24.98 12.5 54.4 73 7.7 45.9
21:10 1017 30.03 846 24.98 12.5 54.4 74 7.9 46.2
21:15 1017 30.03 846 24.98 12.3 54.2 73 7.7 45.9
21:20 1017 30.03 846 24.98 12.3 54.1 72 7.4 45.2
21:25 1017 30.03 846 24.98 12 53.6 74 7.5 45.6
21:30 1017 30.03 846 24.98 11.8 53.3 75 7.6 45.7
21:35 1017 30.03 846 24.98 11.5 52.8 78 7.8 46
21:40 1017 30.03 846 24.98 11.2 52.2 79 7.7 45.8
21:45 1017 30.03 846 24.98 11.1 52 77 7.3 45.1
21:50 1017 30.03 846 24.98 11.3 52.3 76 7.2 45
21:55 1017 30.03 846 24.98 11.3 52.3 75 7 44.6
22:00 1017 30.03 846 24.98 11.3 52.4 74 6.9 44.3
22:05 1017 30.03 846 24.98 11.2 52.2 75 7 44.7
22:10 1017 30.03 847 25.01 11 51.7 77 7.1 44.7
22:15 1017 30.03 847 25.01 10.7 51.3 76 6.7 44.1
22:20 1017 30.03 847 25.01 10.6 51 77 6.7 44
22:25 1017 30.03 847 25.01 10.4 50.6 79 6.8 44.3
22:30 1017 30.03 847 25.01 10.3 50.5 78 6.7 44
22:35 1017 30.03 847 25.01 10.1 50.2 78 6.5 43.7
22:40 1017 30.03 847 25.01 10 50 76 6.1 42.9
22:45 1017 30.03 847 25.01 10.1 50.3 74 5.8 42.5
22:50 1017 30.03 847 25.01 10.2 50.3 76 6 42.9
22:55 1017 30.03 847 25.01 10.4 50.7 73 5.7 42.3
23:00 1017 30.03 847 25.01 10.1 50.2 75 5.8 42.5
23:05 1017 30.03 847 25.01 10.1 50.3 75 5.8 42.5
23:10 1017 30.03 847 25.01 10.2 50.3 71 5.1 41.2
23:15 1017 30.03 847 25.01 10.1 50.2 74 5.7 42.3
23:20 1017 30.03 847 25.01 9.9 49.8 73 5.2 41.4
23:25 1017 30.03 846 24.98 10 50 73 5.4 41.7
23:30 1017 30.03 846 24.98 9.9 49.7 75 5.6 42
23:35 1017 30.03 846 24.98 9.6 49.3 75 5.4 41.7
23:40 1017 30.03 846 24.98 9.4 48.8 76 5.4 41.8
23:45 1017 30.03 846 24.98 9.3 48.7 76 5.2 41.4
23:50 1017 30.03 846 24.98 9.2 48.6 76 5.3 41.6
23:55 1017 30.03 846 24.98 9 48.2 78 5.3 41.6
24:00 1017 30.03 846 24.98 9.1 48.3 76 5 41